< < Back
Terminal Aerodrome Forecast


Current Version              Previous Versions:   1  2  3  4  5  6  7  8  9  

Terminal Aerodrome Forecast

658
FTUS42 KGSP 230532
TAFHKY
TAF
KHKY 230532Z 2306/2406 29003KT P6SM SKC
     FM232300 29004KT P6SM FEW250=



Latest METAR

698
SAUS70 KWBC 240700 RRG
MTRHKY
METAR KHKY 240653Z AUTO 01004KT 10SM CLR 08/04 A3006 RMK AO2 SLP166
T00780044


USA.gov is the U.S. government's official web portal to all federal, state and local government web resources and services.